createdAt,value
2023-03-08T00:00:22.458Z,15.95
2023-03-08T00:05:24.134Z,12.80
2023-03-08T00:10:25.670Z,12.80
2023-03-08T00:15:27.180Z,11.43
2023-03-08T00:20:28.642Z,14.75
2023-03-08T00:25:32.304Z,15.88
2023-03-08T00:30:33.971Z,13.00
2023-03-08T00:35:35.441Z,15.75
2023-03-08T00:40:36.907Z,16.88
2023-03-08T00:45:38.332Z,13.40
2023-03-08T00:50:39.787Z,13.48
2023-03-08T00:55:52.989Z,11.57
2023-03-08T01:00:55.040Z,18.15
2023-03-08T01:05:58.179Z,12.52
2023-03-08T01:11:00.670Z,13.85
2023-03-08T01:16:03.195Z,10.48
2023-03-08T01:21:05.101Z,14.82
2023-03-08T01:26:12.453Z,12.55
2023-03-08T01:31:17.539Z,14.02
2023-03-08T01:36:21.766Z,16.40
2023-03-08T01:41:27.387Z,16.20
2023-03-08T01:46:33.904Z,17.48
2023-03-08T01:51:42.226Z,13.18
2023-03-08T01:56:46.489Z,10.60
2023-03-08T02:01:51.209Z,12.85
2023-03-08T02:06:52.865Z,10.57
2023-03-08T02:11:58.018Z,13.00
2023-03-08T02:16:59.502Z,13.40
2023-03-08T02:22:08.961Z,15.95
2023-03-08T02:27:25.018Z,16.25
2023-03-08T02:32:26.477Z,13.52
2023-03-08T02:37:28.159Z,11.55
2023-03-08T02:42:29.627Z,12.48
2023-03-08T02:47:31.070Z,12.52
2023-03-08T02:52:32.515Z,11.45
2023-03-08T02:57:34.000Z,10.90
2023-03-08T03:02:36.005Z,11.52
2023-03-08T03:07:39.557Z,13.05
2023-03-08T03:12:41.166Z,11.50
2023-03-08T03:17:42.613Z,14.10
2023-03-08T03:22:44.907Z,12.23
2023-03-08T03:27:47.081Z,17.17
2023-03-08T03:32:48.661Z,15.90
2023-03-08T03:37:50.315Z,12.77
2023-03-08T03:42:51.799Z,11.15
2023-03-08T03:47:53.242Z,13.80
2023-03-08T03:52:54.719Z,12.07
2023-03-08T03:57:56.468Z,14.32
2023-03-08T04:02:57.973Z,11.27
2023-03-08T04:07:59.690Z,15.63
2023-03-08T04:13:01.345Z,14.25
2023-03-08T04:18:02.874Z,12.20
2023-03-08T04:23:04.314Z,15.30
2023-03-08T04:28:05.726Z,11.15
2023-03-08T04:33:07.172Z,11.50
2023-03-08T04:38:08.668Z,13.40
2023-03-08T04:43:10.126Z,13.98
2023-03-08T04:48:12.031Z,9.88
2023-03-08T04:53:13.470Z,13.80
2023-03-08T04:58:14.999Z,11.25
2023-03-08T05:03:16.788Z,14.77
2023-03-08T05:08:19.455Z,12.48
2023-03-08T05:13:21.000Z,14.63
2023-03-08T05:18:22.583Z,14.00
2023-03-08T05:23:26.300Z,14.57
2023-03-08T05:28:32.907Z,11.48
2023-03-08T05:33:35.745Z,15.65
2023-03-08T05:38:37.192Z,10.93
2023-03-08T05:43:38.689Z,12.30
2023-03-08T05:48:41.050Z,13.13
2023-03-08T05:53:42.886Z,11.20
2023-03-08T05:58:47.369Z,13.07
2023-03-08T06:03:52.061Z,15.88
2023-03-08T06:08:54.200Z,9.80
2023-03-08T06:13:55.829Z,14.43
2023-03-08T06:18:57.301Z,16.23
2023-03-08T06:23:58.735Z,15.25
2023-03-08T06:29:00.323Z,16.10
2023-03-08T06:34:01.983Z,13.82
2023-03-08T06:39:03.637Z,15.48
2023-03-08T06:44:05.243Z,22.10
2023-03-08T06:49:07.852Z,16.23
2023-03-08T06:54:09.346Z,18.50
2023-03-08T06:59:11.955Z,18.65
2023-03-08T07:04:13.425Z,17.33
2023-03-08T07:09:14.951Z,16.98
2023-03-08T07:14:16.441Z,19.92
2023-03-08T07:19:17.916Z,16.00
2023-03-08T07:24:19.365Z,23.40
2023-03-08T07:29:20.864Z,17.80
2023-03-08T07:34:22.342Z,14.93
2023-03-08T07:39:23.819Z,18.10
2023-03-08T07:44:25.284Z,17.58
2023-03-08T07:49:26.749Z,16.63
2023-03-08T07:54:28.460Z,15.18
2023-03-08T07:59:30.335Z,16.52
2023-03-08T08:04:31.820Z,17.52
2023-03-08T08:09:33.942Z,20.00
2023-03-08T08:14:35.584Z,13.85
2023-03-08T08:19:37.975Z,17.50
2023-03-08T08:24:39.437Z,15.20
2023-03-08T08:29:40.950Z,13.80
2023-03-08T08:34:42.623Z,16.48
2023-03-08T08:39:44.235Z,17.52
2023-03-08T08:44:45.760Z,14.82
2023-03-08T08:49:47.738Z,15.27
2023-03-08T08:54:49.230Z,14.45
2023-03-08T08:59:50.924Z,16.05
2023-03-08T09:04:52.465Z,14.90
2023-03-08T09:09:54.992Z,22.33
2023-03-08T09:14:56.657Z,15.60
2023-03-08T09:19:59.223Z,18.85
2023-03-08T09:25:00.727Z,12.55
2023-03-08T09:30:02.607Z,14.35
2023-03-08T09:35:05.758Z,12.63
2023-03-08T09:40:11.293Z,11.95
2023-03-08T09:45:28.231Z,14.40
2023-03-08T09:50:33.987Z,13.32
2023-03-08T09:55:43.259Z,19.08
2023-03-08T10:00:46.801Z,12.93
2023-03-08T10:05:53.767Z,14.52
2023-03-08T10:11:07.726Z,14.35
2023-03-08T10:16:27.424Z,15.80
2023-03-08T10:21:32.893Z,14.00
2023-03-08T10:26:35.242Z,18.70
2023-03-08T10:31:36.832Z,19.50
2023-03-08T10:37:08.808Z,14.55
2023-03-08T10:42:16.167Z,12.23
2023-03-08T10:47:30.132Z,21.63
2023-03-08T10:52:32.103Z,13.45
2023-03-08T10:57:34.076Z,20.88
2023-03-08T11:02:35.569Z,8.27
2023-03-08T11:07:37.508Z,4.38
2023-03-08T11:12:39.615Z,3.28
2023-03-08T11:18:06.335Z,2.25
2023-03-08T11:23:32.453Z,2.45
2023-03-08T11:28:56.772Z,2.53
2023-03-08T11:34:43.173Z,2.38
2023-03-08T11:40:26.447Z,2.80
2023-03-08T11:45:44.375Z,2.08
2023-03-08T11:50:49.105Z,1.52
2023-03-08T11:56:12.145Z,1.30
2023-03-08T12:01:24.164Z,1.50
2023-03-08T12:06:56.547Z,2.10
2023-03-08T12:11:58.410Z,1.48
2023-03-08T12:17:09.161Z,1.25
2023-03-08T12:22:31.288Z,1.17
2023-03-08T12:27:44.720Z,3.40
2023-03-08T12:32:48.362Z,2.90
2023-03-08T12:38:03.863Z,1.40
2023-03-08T12:43:14.856Z,1.05
2023-03-08T12:48:21.956Z,0.63
2023-03-08T12:53:26.480Z,1.75
2023-03-08T12:58:29.102Z,4.30
2023-03-08T13:03:42.397Z,0.93
2023-03-08T13:08:53.172Z,2.50
2023-03-08T13:14:01.564Z,2.03
2023-03-08T13:19:17.827Z,1.27
2023-03-08T13:24:37.060Z,0.75
2023-03-08T13:29:41.730Z,1.25
2023-03-08T13:34:46.376Z,1.35
2023-03-08T13:39:59.520Z,2.78
2023-03-08T13:45:16.292Z,2.72
2023-03-08T13:50:21.549Z,2.00
2023-03-08T13:55:34.865Z,2.42
2023-03-08T14:00:36.841Z,2.20
2023-03-08T14:05:43.711Z,2.22
2023-03-08T14:10:51.884Z,2.17
2023-03-08T14:16:07.821Z,3.78
2023-03-08T14:21:17.961Z,1.98
2023-03-08T14:27:02.466Z,3.00
2023-03-08T14:32:13.225Z,3.78
2023-03-08T14:37:26.035Z,2.95
2023-03-08T14:42:35.916Z,1.58
2023-03-08T14:47:37.707Z,2.67
2023-03-08T14:52:45.667Z,1.67
2023-03-08T14:57:47.864Z,2.42
2023-03-08T15:02:49.892Z,3.47
2023-03-08T15:07:52.405Z,2.17
2023-03-08T15:12:54.010Z,2.45
2023-03-08T15:17:55.608Z,1.42
2023-03-08T15:23:00.699Z,1.40
2023-03-08T15:28:02.650Z,0.73
2023-03-08T15:33:05.505Z,2.58
2023-03-08T15:38:07.423Z,1.75
2023-03-08T15:43:09.836Z,4.28
2023-03-08T15:48:17.059Z,1.15
2023-03-08T15:53:29.597Z,1.42
2023-03-08T15:58:36.093Z,2.65
2023-03-08T16:03:38.185Z,3.83
2023-03-08T16:08:40.931Z,2.50
2023-03-08T16:13:42.621Z,1.80
2023-03-08T16:18:44.680Z,3.40
2023-03-08T16:23:46.145Z,9.50
2023-03-08T16:28:48.509Z,43.35
2023-03-08T16:33:50.027Z,11.32
2023-03-08T16:38:52.234Z,4.88
2023-03-08T16:43:55.889Z,4.70
2023-03-08T16:48:57.601Z,0.75
2023-03-08T16:53:59.968Z,0.98
2023-03-08T16:59:02.224Z,0.45
2023-03-08T17:04:04.236Z,2.42
2023-03-08T17:09:06.585Z,1.85
2023-03-08T17:14:12.802Z,1.50
2023-03-08T17:19:14.522Z,5.88
2023-03-08T17:24:16.140Z,0.90
2023-03-08T17:29:18.168Z,2.50
2023-03-08T17:34:23.616Z,0.60
2023-03-08T17:39:25.686Z,1.02
2023-03-08T17:44:27.127Z,6.28
2023-03-08T17:49:28.665Z,1.02
2023-03-08T17:54:30.772Z,1.10
2023-03-08T17:59:32.191Z,1.42
2023-03-08T18:04:34.811Z,1.23
2023-03-08T18:09:36.567Z,1.35
2023-03-08T18:14:40.112Z,4.15
2023-03-08T18:19:43.067Z,1.05
2023-03-08T18:24:44.670Z,1.98
2023-03-08T18:29:46.116Z,0.93
2023-03-08T18:34:48.196Z,1.95
2023-03-08T18:39:54.510Z,0.70
2023-03-08T18:44:56.531Z,0.80
2023-03-08T18:49:58.367Z,0.35
2023-03-08T18:54:59.880Z,1.25
2023-03-08T19:00:06.314Z,2.05
2023-03-08T19:05:08.247Z,4.40
2023-03-08T19:10:14.917Z,1.00
2023-03-08T19:15:16.523Z,3.15
2023-03-08T19:20:18.061Z,0.55
2023-03-08T19:25:20.869Z,1.58
2023-03-08T19:30:24.338Z,2.17
2023-03-08T19:35:25.791Z,2.08
2023-03-08T19:40:27.274Z,2.63
2023-03-08T19:45:28.789Z,1.45
2023-03-08T19:50:30.234Z,2.33
2023-03-08T19:55:31.787Z,2.58
2023-03-08T20:00:33.241Z,2.38
2023-03-08T20:05:48.478Z,3.08
2023-03-08T20:10:50.261Z,2.03
2023-03-08T20:15:51.797Z,1.50
2023-03-08T20:20:53.320Z,1.95
2023-03-08T20:25:54.822Z,0.80
2023-03-08T20:30:56.345Z,2.47
2023-03-08T20:35:59.298Z,2.88
2023-03-08T20:41:12.092Z,1.45
2023-03-08T20:46:16.366Z,5.05
2023-03-08T20:51:20.244Z,2.00
2023-03-08T20:56:23.932Z,1.55
2023-03-08T21:01:31.453Z,1.83
2023-03-08T21:06:34.038Z,3.35
2023-03-08T21:11:35.712Z,3.28
2023-03-08T21:16:37.847Z,3.72
2023-03-08T21:21:42.901Z,1.50
2023-03-08T21:26:45.719Z,3.80
2023-03-08T21:31:52.529Z,2.67
2023-03-08T21:36:54.066Z,6.25
2023-03-08T21:41:57.127Z,3.05
2023-03-08T21:46:59.036Z,3.88
2023-03-08T21:52:01.857Z,5.13
2023-03-08T21:57:03.768Z,4.35
2023-03-08T22:02:05.552Z,4.75
2023-03-08T22:07:07.408Z,4.40
2023-03-08T22:12:08.935Z,3.45
2023-03-08T22:17:10.375Z,2.08
2023-03-08T22:22:11.871Z,6.90
2023-03-08T22:27:14.240Z,6.28
2023-03-08T22:32:16.440Z,3.80
2023-03-08T22:37:17.948Z,3.33
2023-03-08T22:42:19.404Z,7.82
2023-03-08T22:47:21.058Z,1.90
2023-03-08T22:52:23.229Z,5.38
2023-03-08T22:57:25.252Z,3.38
2023-03-08T23:02:28.445Z,4.45
2023-03-08T23:07:30.060Z,3.05
2023-03-08T23:12:31.497Z,3.92
2023-03-08T23:17:33.181Z,7.30
2023-03-08T23:22:34.834Z,5.25
2023-03-08T23:27:36.884Z,3.95
2023-03-08T23:32:38.425Z,7.55
2023-03-08T23:37:40.458Z,4.03
2023-03-08T23:42:42.217Z,2.63
2023-03-08T23:47:43.741Z,3.90
2023-03-08T23:52:45.901Z,3.10
2023-03-08T23:57:47.590Z,2.22
